sensor_id;sensor_type;location;lat;lon;timestamp;P1;durP1;ratioP1;P2;durP2;ratioP2
17648;SDS011;8943;51.110;-4.158;2022-07-29T00:01:40;6.10;;;3.73;;
17648;SDS011;8943;51.110;-4.158;2022-07-29T00:04:09;6.33;;;3.67;;
17648;SDS011;8943;51.110;-4.158;2022-07-29T00:06:39;5.13;;;2.93;;
17648;SDS011;8943;51.110;-4.158;2022-07-29T00:09:11;6.20;;;3.50;;
17648;SDS011;8943;51.110;-4.158;2022-07-29T00:11:40;5.30;;;3.63;;
17648;SDS011;8943;51.110;-4.158;2022-07-29T00:14:09;6.53;;;3.90;;
17648;SDS011;8943;51.110;-4.158;2022-07-29T00:16:38;6.47;;;3.93;;
17648;SDS011;8943;51.110;-4.158;2022-07-29T00:19:08;11.57;;;4.13;;
17648;SDS011;8943;51.110;-4.158;2022-07-29T00:21:37;8.20;;;3.63;;
17648;SDS011;8943;51.110;-4.158;2022-07-29T00:24:07;5.70;;;3.90;;
17648;SDS011;8943;51.110;-4.158;2022-07-29T00:26:37;4.93;;;3.77;;
17648;SDS011;8943;51.110;-4.158;2022-07-29T00:29:05;8.43;;;4.67;;
17648;SDS011;8943;51.110;-4.158;2022-07-29T00:31:54;6.87;;;3.93;;
17648;SDS011;8943;51.110;-4.158;2022-07-29T00:34:23;6.40;;;4.00;;
17648;SDS011;8943;51.110;-4.158;2022-07-29T00:37:08;7.80;;;3.93;;
17648;SDS011;8943;51.110;-4.158;2022-07-29T00:39:38;6.90;;;3.87;;
17648;SDS011;8943;51.110;-4.158;2022-07-29T00:42:08;5.33;;;3.97;;
17648;SDS011;8943;51.110;-4.158;2022-07-29T00:44:37;4.93;;;3.73;;
17648;SDS011;8943;51.110;-4.158;2022-07-29T00:47:06;5.27;;;3.37;;
17648;SDS011;8943;51.110;-4.158;2022-07-29T00:49:36;6.37;;;4.23;;
17648;SDS011;8943;51.110;-4.158;2022-07-29T00:52:08;7.17;;;4.37;;
17648;SDS011;8943;51.110;-4.158;2022-07-29T00:54:42;7.83;;;6.60;;
17648;SDS011;8943;51.110;-4.158;2022-07-29T00:57:12;7.57;;;4.97;;
17648;SDS011;8943;51.110;-4.158;2022-07-29T00:59:42;9.97;;;5.07;;
17648;SDS011;8943;51.110;-4.158;2022-07-29T01:02:11;5.47;;;4.47;;
17648;SDS011;8943;51.110;-4.158;2022-07-29T01:04:40;8.40;;;4.37;;
17648;SDS011;8943;51.110;-4.158;2022-07-29T01:07:09;15.03;;;3.97;;
17648;SDS011;8943;51.110;-4.158;2022-07-29T01:09:38;9.80;;;4.67;;
17648;SDS011;8943;51.110;-4.158;2022-07-29T01:12:16;6.70;;;4.30;;
17648;SDS011;8943;51.110;-4.158;2022-07-29T01:14:55;8.50;;;4.37;;
17648;SDS011;8943;51.110;-4.158;2022-07-29T01:17:26;7.90;;;4.53;;
17648;SDS011;8943;51.110;-4.158;2022-07-29T01:20:02;7.50;;;5.00;;
17648;SDS011;8943;51.110;-4.158;2022-07-29T01:22:44;8.47;;;4.23;;
17648;SDS011;8943;51.110;-4.158;2022-07-29T01:29:11;9.13;;;4.77;;
17648;SDS011;8943;51.110;-4.158;2022-07-29T01:32:06;7.30;;;5.23;;
17648;SDS011;8943;51.110;-4.158;2022-07-29T01:34:56;11.73;;;4.73;;
17648;SDS011;8943;51.110;-4.158;2022-07-29T01:37:32;5.60;;;4.53;;
17648;SDS011;8943;51.110;-4.158;2022-07-29T01:40:08;5.07;;;4.23;;
17648;SDS011;8943;51.110;-4.158;2022-07-29T01:42:45;6.17;;;4.20;;
17648;SDS011;8943;51.110;-4.158;2022-07-29T01:45:21;5.57;;;4.20;;
17648;SDS011;8943;51.110;-4.158;2022-07-29T01:47:56;8.00;;;4.37;;
17648;SDS011;8943;51.110;-4.158;2022-07-29T01:50:30;7.30;;;4.60;;
17648;SDS011;8943;51.110;-4.158;2022-07-29T01:53:03;8.07;;;4.47;;
17648;SDS011;8943;51.110;-4.158;2022-07-29T01:55:35;7.37;;;4.50;;
17648;SDS011;8943;51.110;-4.158;2022-07-29T01:58:08;4.37;;;3.97;;
17648;SDS011;8943;51.110;-4.158;2022-07-29T02:00:42;5.73;;;4.40;;
17648;SDS011;8943;51.110;-4.158;2022-07-29T02:03:13;8.53;;;4.90;;
17648;SDS011;8943;51.110;-4.158;2022-07-29T02:05:45;6.63;;;5.30;;
17648;SDS011;8943;51.110;-4.158;2022-07-29T02:08:17;5.37;;;4.50;;
17648;SDS011;8943;51.110;-4.158;2022-07-29T02:10:48;8.17;;;4.53;;
17648;SDS011;8943;51.110;-4.158;2022-07-29T02:13:20;9.60;;;6.67;;
17648;SDS011;8943;51.110;-4.158;2022-07-29T02:15:55;11.63;;;6.17;;
17648;SDS011;8943;51.110;-4.158;2022-07-29T02:18:26;9.40;;;5.60;;
17648;SDS011;8943;51.110;-4.158;2022-07-29T02:20:56;8.23;;;5.60;;
17648;SDS011;8943;51.110;-4.158;2022-07-29T02:23:27;6.80;;;5.13;;
17648;SDS011;8943;51.110;-4.158;2022-07-29T02:26:16;10.57;;;4.97;;
17648;SDS011;8943;51.110;-4.158;2022-07-29T02:28:51;9.57;;;4.83;;
17648;SDS011;8943;51.110;-4.158;2022-07-29T02:31:28;5.37;;;4.87;;
17648;SDS011;8943;51.110;-4.158;2022-07-29T02:34:00;7.47;;;5.10;;
17648;SDS011;8943;51.110;-4.158;2022-07-29T02:36:31;9.57;;;5.10;;
17648;SDS011;8943;51.110;-4.158;2022-07-29T02:39:02;7.47;;;5.27;;
17648;SDS011;8943;51.110;-4.158;2022-07-29T02:41:37;6.53;;;4.70;;
17648;SDS011;8943;51.110;-4.158;2022-07-29T02:44:12;10.50;;;4.60;;
17648;SDS011;8943;51.110;-4.158;2022-07-29T02:46:45;8.57;;;5.00;;
17648;SDS011;8943;51.110;-4.158;2022-07-29T02:49:18;10.60;;;4.77;;
17648;SDS011;8943;51.110;-4.158;2022-07-29T02:51:58;8.80;;;4.47;;
17648;SDS011;8943;51.110;-4.158;2022-07-29T02:54:31;8.90;;;4.57;;
17648;SDS011;8943;51.110;-4.158;2022-07-29T02:57:08;5.33;;;4.30;;
17648;SDS011;8943;51.110;-4.158;2022-07-29T02:59:41;6.20;;;3.90;;
17648;SDS011;8943;51.110;-4.158;2022-07-29T03:02:14;7.23;;;4.37;;
17648;SDS011;8943;51.110;-4.158;2022-07-29T03:04:44;7.87;;;4.27;;
17648;SDS011;8943;51.110;-4.158;2022-07-29T03:07:18;11.13;;;4.93;;
17648;SDS011;8943;51.110;-4.158;2022-07-29T03:09:48;8.63;;;4.70;;
17648;SDS011;8943;51.110;-4.158;2022-07-29T03:12:18;8.37;;;4.47;;
17648;SDS011;8943;51.110;-4.158;2022-07-29T03:14:48;7.07;;;5.30;;
17648;SDS011;8943;51.110;-4.158;2022-07-29T03:17:18;7.00;;;4.80;;
17648;SDS011;8943;51.110;-4.158;2022-07-29T03:19:49;7.80;;;4.30;;
17648;SDS011;8943;51.110;-4.158;2022-07-29T03:22:18;7.53;;;4.23;;
17648;SDS011;8943;51.110;-4.158;2022-07-29T03:24:47;7.27;;;4.20;;
17648;SDS011;8943;51.110;-4.158;2022-07-29T03:27:17;6.57;;;4.17;;
17648;SDS011;8943;51.110;-4.158;2022-07-29T03:29:46;4.33;;;3.70;;
17648;SDS011;8943;51.110;-4.158;2022-07-29T03:32:16;4.57;;;4.00;;
17648;SDS011;8943;51.110;-4.158;2022-07-29T03:34:50;6.50;;;4.43;;
17648;SDS011;8943;51.110;-4.158;2022-07-29T03:37:19;7.53;;;4.10;;
17648;SDS011;8943;51.110;-4.158;2022-07-29T03:39:52;6.67;;;4.70;;
17648;SDS011;8943;51.110;-4.158;2022-07-29T03:42:24;6.70;;;5.10;;
17648;SDS011;8943;51.110;-4.158;2022-07-29T03:45:00;7.90;;;5.00;;
17648;SDS011;8943;51.110;-4.158;2022-07-29T03:47:37;7.53;;;3.90;;
17648;SDS011;8943;51.110;-4.158;2022-07-29T03:50:16;10.10;;;5.57;;
17648;SDS011;8943;51.110;-4.158;2022-07-29T03:52:51;8.60;;;4.37;;
17648;SDS011;8943;51.110;-4.158;2022-07-29T03:55:20;6.10;;;3.70;;
17648;SDS011;8943;51.110;-4.158;2022-07-29T03:57:54;5.47;;;4.23;;
17648;SDS011;8943;51.110;-4.158;2022-07-29T04:00:24;7.00;;;4.13;;
17648;SDS011;8943;51.110;-4.158;2022-07-29T04:02:57;5.57;;;3.60;;
17648;SDS011;8943;51.110;-4.158;2022-07-29T04:05:26;5.47;;;4.30;;
17648;SDS011;8943;51.110;-4.158;2022-07-29T04:07:54;6.80;;;3.90;;
17648;SDS011;8943;51.110;-4.158;2022-07-29T04:10:25;5.20;;;4.20;;
17648;SDS011;8943;51.110;-4.158;2022-07-29T04:12:59;5.67;;;4.50;;
17648;SDS011;8943;51.110;-4.158;2022-07-29T04:15:28;6.53;;;3.73;;
17648;SDS011;8943;51.110;-4.158;2022-07-29T04:17:59;6.60;;;4.40;;
17648;SDS011;8943;51.110;-4.158;2022-07-29T04:20:28;5.83;;;4.20;;
17648;SDS011;8943;51.110;-4.158;2022-07-29T04:23:07;4.73;;;3.67;;
17648;SDS011;8943;51.110;-4.158;2022-07-29T04:25:39;5.93;;;4.10;;
17648;SDS011;8943;51.110;-4.158;2022-07-29T04:28:08;7.93;;;4.07;;
17648;SDS011;8943;51.110;-4.158;2022-07-29T04:30:38;4.67;;;3.63;;
17648;SDS011;8943;51.110;-4.158;2022-07-29T04:33:08;7.37;;;4.17;;
17648;SDS011;8943;51.110;-4.158;2022-07-29T04:35:38;6.53;;;3.83;;
17648;SDS011;8943;51.110;-4.158;2022-07-29T04:38:15;8.63;;;4.07;;
17648;SDS011;8943;51.110;-4.158;2022-07-29T04:40:44;6.07;;;3.80;;
17648;SDS011;8943;51.110;-4.158;2022-07-29T04:43:16;7.20;;;3.83;;
17648;SDS011;8943;51.110;-4.158;2022-07-29T04:45:48;5.97;;;3.50;;
17648;SDS011;8943;51.110;-4.158;2022-07-29T04:48:20;7.00;;;4.20;;
17648;SDS011;8943;51.110;-4.158;2022-07-29T04:50:58;4.20;;;3.80;;
17648;SDS011;8943;51.110;-4.158;2022-07-29T04:53:27;5.10;;;4.30;;
17648;SDS011;8943;51.110;-4.158;2022-07-29T04:55:58;8.27;;;4.60;;
17648;SDS011;8943;51.110;-4.158;2022-07-29T04:58:27;4.70;;;4.20;;
17648;SDS011;8943;51.110;-4.158;2022-07-29T05:00:56;4.60;;;3.90;;
17648;SDS011;8943;51.110;-4.158;2022-07-29T05:03:30;4.13;;;3.70;;
17648;SDS011;8943;51.110;-4.158;2022-07-29T05:06:06;5.07;;;3.40;;
17648;SDS011;8943;51.110;-4.158;2022-07-29T05:08:38;5.37;;;3.50;;
17648;SDS011;8943;51.110;-4.158;2022-07-29T05:11:07;7.87;;;3.23;;
17648;SDS011;8943;51.110;-4.158;2022-07-29T05:13:50;5.97;;;3.07;;
17648;SDS011;8943;51.110;-4.158;2022-07-29T05:16:25;7.93;;;3.33;;
17648;SDS011;8943;51.110;-4.158;2022-07-29T05:18:57;3.30;;;2.83;;
17648;SDS011;8943;51.110;-4.158;2022-07-29T05:21:27;4.83;;;2.57;;
17648;SDS011;8943;51.110;-4.158;2022-07-29T05:23:55;3.97;;;2.90;;
17648;SDS011;8943;51.110;-4.158;2022-07-29T05:26:24;3.60;;;2.70;;
17648;SDS011;8943;51.110;-4.158;2022-07-29T05:28:54;5.80;;;2.83;;
17648;SDS011;8943;51.110;-4.158;2022-07-29T05:31:38;4.03;;;3.00;;
17648;SDS011;8943;51.110;-4.158;2022-07-29T05:34:25;5.37;;;2.33;;
17648;SDS011;8943;51.110;-4.158;2022-07-29T05:36:56;4.53;;;2.60;;
17648;SDS011;8943;51.110;-4.158;2022-07-29T05:39:25;3.43;;;2.47;;
17648;SDS011;8943;51.110;-4.158;2022-07-29T05:42:14;4.37;;;2.70;;
17648;SDS011;8943;51.110;-4.158;2022-07-29T05:44:44;4.17;;;2.83;;
17648;SDS011;8943;51.110;-4.158;2022-07-29T05:47:14;3.60;;;2.60;;
17648;SDS011;8943;51.110;-4.158;2022-07-29T05:49:44;3.00;;;2.40;;
17648;SDS011;8943;51.110;-4.158;2022-07-29T05:52:16;6.13;;;2.70;;
17648;SDS011;8943;51.110;-4.158;2022-07-29T05:54:47;6.63;;;2.97;;
17648;SDS011;8943;51.110;-4.158;2022-07-29T05:57:19;7.60;;;2.83;;
17648;SDS011;8943;51.110;-4.158;2022-07-29T05:59:50;5.20;;;2.83;;
17648;SDS011;8943;51.110;-4.158;2022-07-29T06:02:20;8.30;;;3.73;;
17648;SDS011;8943;51.110;-4.158;2022-07-29T06:04:55;4.23;;;3.10;;
17648;SDS011;8943;51.110;-4.158;2022-07-29T06:07:29;5.10;;;2.80;;
17648;SDS011;8943;51.110;-4.158;2022-07-29T06:10:01;5.13;;;3.03;;
17648;SDS011;8943;51.110;-4.158;2022-07-29T06:12:30;6.47;;;3.77;;
17648;SDS011;8943;51.110;-4.158;2022-07-29T06:14:59;7.77;;;3.80;;
17648;SDS011;8943;51.110;-4.158;2022-07-29T06:17:28;4.40;;;4.00;;
17648;SDS011;8943;51.110;-4.158;2022-07-29T06:20:03;7.83;;;4.53;;
17648;SDS011;8943;51.110;-4.158;2022-07-29T06:22:52;5.37;;;3.77;;
17648;SDS011;8943;51.110;-4.158;2022-07-29T06:25:27;6.10;;;4.30;;
17648;SDS011;8943;51.110;-4.158;2022-07-29T06:28:16;6.67;;;4.80;;
17648;SDS011;8943;51.110;-4.158;2022-07-29T06:31:00;8.43;;;4.97;;
17648;SDS011;8943;51.110;-4.158;2022-07-29T06:33:47;6.70;;;4.07;;
17648;SDS011;8943;51.110;-4.158;2022-07-29T06:36:58;7.60;;;5.47;;
17648;SDS011;8943;51.110;-4.158;2022-07-29T06:39:29;7.30;;;4.67;;
17648;SDS011;8943;51.110;-4.158;2022-07-29T06:42:00;5.27;;;4.53;;
17648;SDS011;8943;51.110;-4.158;2022-07-29T06:44:36;10.60;;;4.87;;
17648;SDS011;8943;51.110;-4.158;2022-07-29T06:47:06;6.37;;;5.03;;
17648;SDS011;8943;51.110;-4.158;2022-07-29T06:49:34;6.20;;;4.80;;
17648;SDS011;8943;51.110;-4.158;2022-07-29T06:52:05;8.57;;;5.17;;
17648;SDS011;8943;51.110;-4.158;2022-07-29T06:54:33;8.90;;;5.07;;
17648;SDS011;8943;51.110;-4.158;2022-07-29T06:57:01;12.03;;;5.50;;
17648;SDS011;8943;51.110;-4.158;2022-07-29T06:59:31;7.13;;;4.80;;
17648;SDS011;8943;51.110;-4.158;2022-07-29T07:02:01;8.87;;;5.20;;
17648;SDS011;8943;51.110;-4.158;2022-07-29T07:04:31;10.00;;;6.27;;
17648;SDS011;8943;51.110;-4.158;2022-07-29T07:07:03;10.97;;;5.93;;
17648;SDS011;8943;51.110;-4.158;2022-07-29T07:09:33;10.47;;;6.10;;
17648;SDS011;8943;51.110;-4.158;2022-07-29T07:12:06;11.07;;;7.33;;
17648;SDS011;8943;51.110;-4.158;2022-07-29T07:14:36;10.93;;;6.37;;
17648;SDS011;8943;51.110;-4.158;2022-07-29T07:17:06;11.00;;;6.87;;
17648;SDS011;8943;51.110;-4.158;2022-07-29T07:19:38;12.17;;;6.90;;
17648;SDS011;8943;51.110;-4.158;2022-07-29T07:22:15;8.53;;;7.40;;
17648;SDS011;8943;51.110;-4.158;2022-07-29T07:24:48;9.23;;;8.00;;
17648;SDS011;8943;51.110;-4.158;2022-07-29T07:27:20;15.43;;;8.87;;
17648;SDS011;8943;51.110;-4.158;2022-07-29T07:30:12;13.30;;;9.40;;
17648;SDS011;8943;51.110;-4.158;2022-07-29T07:33:15;14.30;;;8.40;;
17648;SDS011;8943;51.110;-4.158;2022-07-29T07:36:03;15.97;;;9.37;;
17648;SDS011;8943;51.110;-4.158;2022-07-29T07:38:53;10.63;;;8.23;;
17648;SDS011;8943;51.110;-4.158;2022-07-29T07:41:41;11.53;;;8.90;;
17648;SDS011;8943;51.110;-4.158;2022-07-29T07:44:09;16.40;;;9.47;;
17648;SDS011;8943;51.110;-4.158;2022-07-29T07:46:41;11.20;;;9.17;;
17648;SDS011;8943;51.110;-4.158;2022-07-29T07:49:13;16.13;;;9.57;;
17648;SDS011;8943;51.110;-4.158;2022-07-29T07:51:46;13.73;;;9.20;;
17648;SDS011;8943;51.110;-4.158;2022-07-29T07:54:42;15.63;;;10.20;;
17648;SDS011;8943;51.110;-4.158;2022-07-29T07:57:26;16.10;;;8.83;;
17648;SDS011;8943;51.110;-4.158;2022-07-29T08:00:05;17.70;;;10.80;;
17648;SDS011;8943;51.110;-4.158;2022-07-29T08:02:49;17.33;;;9.93;;
17648;SDS011;8943;51.110;-4.158;2022-07-29T08:05:26;17.57;;;10.43;;
17648;SDS011;8943;51.110;-4.158;2022-07-29T08:08:13;11.73;;;10.03;;
17648;SDS011;8943;51.110;-4.158;2022-07-29T08:13:35;16.67;;;10.13;;
17648;SDS011;8943;51.110;-4.158;2022-07-29T08:16:39;17.00;;;10.40;;
17648;SDS011;8943;51.110;-4.158;2022-07-29T08:19:10;18.33;;;10.33;;
17648;SDS011;8943;51.110;-4.158;2022-07-29T08:21:56;18.73;;;9.20;;
17648;SDS011;8943;51.110;-4.158;2022-07-29T08:25:11;13.30;;;8.07;;
17648;SDS011;8943;51.110;-4.158;2022-07-29T08:30:54;10.63;;;7.17;;
17648;SDS011;8943;51.110;-4.158;2022-07-29T08:33:24;15.43;;;8.23;;
17648;SDS011;8943;51.110;-4.158;2022-07-29T08:35:56;16.20;;;8.40;;
17648;SDS011;8943;51.110;-4.158;2022-07-29T08:38:25;14.27;;;7.90;;
17648;SDS011;8943;51.110;-4.158;2022-07-29T08:41:23;15.90;;;7.83;;
17648;SDS011;8943;51.110;-4.158;2022-07-29T08:43:56;9.70;;;6.37;;
17648;SDS011;8943;51.110;-4.158;2022-07-29T08:46:53;15.57;;;6.50;;
17648;SDS011;8943;51.110;-4.158;2022-07-29T08:49:22;13.27;;;7.37;;
17648;SDS011;8943;51.110;-4.158;2022-07-29T08:52:02;13.03;;;6.40;;
17648;SDS011;8943;51.110;-4.158;2022-07-29T08:54:31;10.90;;;6.43;;
17648;SDS011;8943;51.110;-4.158;2022-07-29T08:57:02;11.57;;;5.70;;
17648;SDS011;8943;51.110;-4.158;2022-07-29T08:59:32;14.03;;;6.80;;
17648;SDS011;8943;51.110;-4.158;2022-07-29T09:02:06;9.57;;;5.30;;
17648;SDS011;8943;51.110;-4.158;2022-07-29T09:04:46;12.40;;;5.23;;
17648;SDS011;8943;51.110;-4.158;2022-07-29T09:07:19;14.57;;;5.57;;
17648;SDS011;8943;51.110;-4.158;2022-07-29T09:10:13;14.20;;;4.80;;
17648;SDS011;8943;51.110;-4.158;2022-07-29T09:13:16;9.83;;;4.40;;
17648;SDS011;8943;51.110;-4.158;2022-07-29T09:15:52;12.53;;;4.47;;
17648;SDS011;8943;51.110;-4.158;2022-07-29T09:18:34;7.37;;;4.50;;
17648;SDS011;8943;51.110;-4.158;2022-07-29T09:21:25;11.40;;;4.00;;
17648;SDS011;8943;51.110;-4.158;2022-07-29T09:24:40;7.63;;;3.90;;
17648;SDS011;8943;51.110;-4.158;2022-07-29T09:27:30;8.63;;;3.67;;
17648;SDS011;8943;51.110;-4.158;2022-07-29T09:30:13;9.90;;;3.65;;
17648;SDS011;8943;51.110;-4.158;2022-07-29T09:33:00;13.27;;;3.73;;
17648;SDS011;8943;51.110;-4.158;2022-07-29T09:44:12;8.15;;;3.50;;
17648;SDS011;8943;51.110;-4.158;2022-07-29T09:46:58;8.18;;;3.45;;
17648;SDS011;8943;51.110;-4.158;2022-07-29T09:49:54;4.33;;;2.83;;
17648;SDS011;8943;51.110;-4.158;2022-07-29T09:52:25;8.95;;;2.78;;
17648;SDS011;8943;51.110;-4.158;2022-07-29T09:55:06;7.07;;;2.95;;
17648;SDS011;8943;51.110;-4.158;2022-07-29T09:57:44;7.63;;;3.17;;
17648;SDS011;8943;51.110;-4.158;2022-07-29T10:18:38;7.45;;;3.03;;
17648;SDS011;8943;51.110;-4.158;2022-07-29T10:21:10;7.93;;;2.17;;
17648;SDS011;8943;51.110;-4.158;2022-07-29T10:34:22;4.38;;;2.20;;
17648;SDS011;8943;51.110;-4.158;2022-07-29T10:37:05;3.33;;;2.10;;
17648;SDS011;8943;51.110;-4.158;2022-07-29T10:40:06;5.27;;;1.80;;
17648;SDS011;8943;51.110;-4.158;2022-07-29T10:43:09;6.20;;;2.10;;
17648;SDS011;8943;51.110;-4.158;2022-07-29T10:46:04;4.83;;;2.50;;
17648;SDS011;8943;51.110;-4.158;2022-07-29T10:57:16;3.80;;;1.93;;
17648;SDS011;8943;51.110;-4.158;2022-07-29T11:03:01;5.23;;;2.07;;
17648;SDS011;8943;51.110;-4.158;2022-07-29T11:05:53;5.53;;;1.50;;
17648;SDS011;8943;51.110;-4.158;2022-07-29T11:08:30;5.60;;;1.93;;
17648;SDS011;8943;51.110;-4.158;2022-07-29T11:14:17;3.93;;;2.10;;
17648;SDS011;8943;51.110;-4.158;2022-07-29T11:16:59;3.70;;;1.57;;
17648;SDS011;8943;51.110;-4.158;2022-07-29T11:19:39;11.87;;;7.30;;
17648;SDS011;8943;51.110;-4.158;2022-07-29T11:22:31;5.37;;;3.00;;
17648;SDS011;8943;51.110;-4.158;2022-07-29T11:25:16;3.65;;;1.63;;
17648;SDS011;8943;51.110;-4.158;2022-07-29T11:28:13;3.75;;;1.75;;
17648;SDS011;8943;51.110;-4.158;2022-07-29T11:30:51;4.77;;;1.50;;
17648;SDS011;8943;51.110;-4.158;2022-07-29T11:33:28;9.43;;;1.48;;
17648;SDS011;8943;51.110;-4.158;2022-07-29T11:36:22;3.40;;;1.80;;
17648;SDS011;8943;51.110;-4.158;2022-07-29T11:38:56;6.30;;;1.80;;
17648;SDS011;8943;51.110;-4.158;2022-07-29T11:45:27;7.03;;;1.87;;
17648;SDS011;8943;51.110;-4.158;2022-07-29T11:48:17;11.80;;;2.17;;
17648;SDS011;8943;51.110;-4.158;2022-07-29T11:50:58;7.40;;;1.80;;
17648;SDS011;8943;51.110;-4.158;2022-07-29T11:53:31;4.20;;;1.60;;
17648;SDS011;8943;51.110;-4.158;2022-07-29T11:56:02;6.13;;;1.87;;
17648;SDS011;8943;51.110;-4.158;2022-07-29T11:58:37;6.40;;;2.17;;
17648;SDS011;8943;51.110;-4.158;2022-07-29T12:01:08;4.47;;;1.70;;
17648;SDS011;8943;51.110;-4.158;2022-07-29T12:03:46;5.10;;;2.10;;
17648;SDS011;8943;51.110;-4.158;2022-07-29T12:06:18;4.13;;;2.27;;
17648;SDS011;8943;51.110;-4.158;2022-07-29T12:09:00;4.80;;;2.20;;
17648;SDS011;8943;51.110;-4.158;2022-07-29T12:11:46;8.57;;;2.00;;
17648;SDS011;8943;51.110;-4.158;2022-07-29T12:17:49;4.27;;;1.83;;
17648;SDS011;8943;51.110;-4.158;2022-07-29T12:20:24;6.83;;;2.20;;
17648;SDS011;8943;51.110;-4.158;2022-07-29T12:22:55;4.77;;;1.67;;
17648;SDS011;8943;51.110;-4.158;2022-07-29T12:25:24;9.03;;;2.20;;
17648;SDS011;8943;51.110;-4.158;2022-07-29T12:28:01;7.53;;;2.33;;
17648;SDS011;8943;51.110;-4.158;2022-07-29T12:30:53;5.73;;;1.53;;
17648;SDS011;8943;51.110;-4.158;2022-07-29T12:33:29;4.87;;;1.80;;
17648;SDS011;8943;51.110;-4.158;2022-07-29T12:36:00;2.97;;;1.73;;
17648;SDS011;8943;51.110;-4.158;2022-07-29T12:38:44;7.67;;;2.17;;
17648;SDS011;8943;51.110;-4.158;2022-07-29T12:41:37;4.93;;;1.77;;
17648;SDS011;8943;51.110;-4.158;2022-07-29T12:44:43;2.92;;;1.90;;
17648;SDS011;8943;51.110;-4.158;2022-07-29T12:50:12;4.80;;;1.77;;
17648;SDS011;8943;51.110;-4.158;2022-07-29T12:52:50;5.45;;;1.90;;
17648;SDS011;8943;51.110;-4.158;2022-07-29T12:55:40;3.97;;;1.60;;
17648;SDS011;8943;51.110;-4.158;2022-07-29T12:58:11;7.60;;;1.45;;
17648;SDS011;8943;51.110;-4.158;2022-07-29T13:00:47;4.03;;;1.77;;
17648;SDS011;8943;51.110;-4.158;2022-07-29T13:08:37;6.78;;;1.83;;
17648;SDS011;8943;51.110;-4.158;2022-07-29T13:11:06;4.35;;;2.00;;
17648;SDS011;8943;51.110;-4.158;2022-07-29T13:19:33;7.68;;;2.15;;
17648;SDS011;8943;51.110;-4.158;2022-07-29T13:22:11;7.43;;;2.10;;
17648;SDS011;8943;51.110;-4.158;2022-07-29T13:24:53;6.38;;;2.28;;
17648;SDS011;8943;51.110;-4.158;2022-07-29T13:27:52;6.50;;;2.28;;
17648;SDS011;8943;51.110;-4.158;2022-07-29T13:30:24;6.57;;;1.90;;
17648;SDS011;8943;51.110;-4.158;2022-07-29T13:32:55;3.65;;;1.65;;
17648;SDS011;8943;51.110;-4.158;2022-07-29T13:35:31;5.65;;;1.67;;
17648;SDS011;8943;51.110;-4.158;2022-07-29T13:38:05;4.80;;;1.70;;
17648;SDS011;8943;51.110;-4.158;2022-07-29T13:44:01;4.95;;;1.73;;
17648;SDS011;8943;51.110;-4.158;2022-07-29T13:46:30;3.63;;;1.35;;
17648;SDS011;8943;51.110;-4.158;2022-07-29T13:49:07;6.47;;;1.63;;
17648;SDS011;8943;51.110;-4.158;2022-07-29T13:51:38;6.95;;;1.23;;
17648;SDS011;8943;51.110;-4.158;2022-07-29T13:54:06;7.10;;;1.30;;
17648;SDS011;8943;51.110;-4.158;2022-07-29T13:56:37;3.85;;;1.35;;
17648;SDS011;8943;51.110;-4.158;2022-07-29T13:59:13;1.60;;;1.05;;
17648;SDS011;8943;51.110;-4.158;2022-07-29T14:01:45;2.33;;;1.13;;
17648;SDS011;8943;51.110;-4.158;2022-07-29T14:04:15;3.08;;;1.00;;
17648;SDS011;8943;51.110;-4.158;2022-07-29T14:06:47;4.93;;;1.30;;
17648;SDS011;8943;51.110;-4.158;2022-07-29T14:09:16;4.72;;;1.55;;
17648;SDS011;8943;51.110;-4.158;2022-07-29T14:11:46;3.08;;;1.45;;
17648;SDS011;8943;51.110;-4.158;2022-07-29T14:14:20;4.32;;;1.65;;
17648;SDS011;8943;51.110;-4.158;2022-07-29T14:17:03;4.70;;;1.48;;
17648;SDS011;8943;51.110;-4.158;2022-07-29T14:19:36;3.97;;;1.50;;
17648;SDS011;8943;51.110;-4.158;2022-07-29T14:22:16;3.70;;;1.10;;
17648;SDS011;8943;51.110;-4.158;2022-07-29T14:24:51;3.20;;;1.48;;
17648;SDS011;8943;51.110;-4.158;2022-07-29T14:27:49;3.13;;;1.23;;
17648;SDS011;8943;51.110;-4.158;2022-07-29T14:31:02;2.58;;;1.17;;
17648;SDS011;8943;51.110;-4.158;2022-07-29T14:33:34;8.80;;;1.20;;
17648;SDS011;8943;51.110;-4.158;2022-07-29T14:36:05;3.97;;;1.10;;
17648;SDS011;8943;51.110;-4.158;2022-07-29T14:38:35;3.60;;;1.20;;
17648;SDS011;8943;51.110;-4.158;2022-07-29T14:41:05;1.98;;;1.17;;
17648;SDS011;8943;51.110;-4.158;2022-07-29T14:43:48;4.22;;;1.20;;
17648;SDS011;8943;51.110;-4.158;2022-07-29T14:46:43;9.93;;;1.27;;
17648;SDS011;8943;51.110;-4.158;2022-07-29T14:49:15;18.60;;;2.10;;
17648;SDS011;8943;51.110;-4.158;2022-07-29T14:51:47;4.75;;;1.30;;
17648;SDS011;8943;51.110;-4.158;2022-07-29T14:54:17;3.28;;;1.30;;
17648;SDS011;8943;51.110;-4.158;2022-07-29T14:56:47;2.53;;;1.10;;
17648;SDS011;8943;51.110;-4.158;2022-07-29T14:59:22;3.50;;;1.20;;
17648;SDS011;8943;51.110;-4.158;2022-07-29T15:01:53;2.75;;;0.98;;
17648;SDS011;8943;51.110;-4.158;2022-07-29T15:04:24;4.70;;;1.60;;
17648;SDS011;8943;51.110;-4.158;2022-07-29T15:07:02;3.22;;;1.48;;
17648;SDS011;8943;51.110;-4.158;2022-07-29T15:09:32;5.10;;;1.42;;
17648;SDS011;8943;51.110;-4.158;2022-07-29T15:12:16;5.93;;;1.60;;
17648;SDS011;8943;51.110;-4.158;2022-07-29T15:14:47;3.47;;;1.50;;
17648;SDS011;8943;51.110;-4.158;2022-07-29T15:17:25;10.18;;;1.60;;
17648;SDS011;8943;51.110;-4.158;2022-07-29T15:20:06;8.60;;;1.50;;
17648;SDS011;8943;51.110;-4.158;2022-07-29T15:22:37;5.05;;;1.40;;
17648;SDS011;8943;51.110;-4.158;2022-07-29T15:25:11;9.05;;;1.60;;
17648;SDS011;8943;51.110;-4.158;2022-07-29T15:27:50;2.42;;;1.33;;
17648;SDS011;8943;51.110;-4.158;2022-07-29T15:30:27;3.40;;;1.40;;
17648;SDS011;8943;51.110;-4.158;2022-07-29T15:33:11;3.20;;;1.20;;
17648;SDS011;8943;51.110;-4.158;2022-07-29T15:35:47;5.30;;;1.50;;
17648;SDS011;8943;51.110;-4.158;2022-07-29T15:38:48;6.38;;;1.83;;
17648;SDS011;8943;51.110;-4.158;2022-07-29T15:41:33;3.40;;;1.52;;
17648;SDS011;8943;51.110;-4.158;2022-07-29T15:44:04;4.32;;;1.40;;
17648;SDS011;8943;51.110;-4.158;2022-07-29T15:46:34;5.72;;;1.60;;
17648;SDS011;8943;51.110;-4.158;2022-07-29T15:49:51;5.50;;;1.50;;
17648;SDS011;8943;51.110;-4.158;2022-07-29T15:52:25;6.88;;;1.70;;
17648;SDS011;8943;51.110;-4.158;2022-07-29T15:54:57;5.03;;;1.90;;
17648;SDS011;8943;51.110;-4.158;2022-07-29T15:57:42;3.78;;;1.40;;
17648;SDS011;8943;51.110;-4.158;2022-07-29T16:00:13;3.70;;;1.27;;
17648;SDS011;8943;51.110;-4.158;2022-07-29T16:02:45;3.10;;;1.42;;
17648;SDS011;8943;51.110;-4.158;2022-07-29T16:05:18;4.50;;;1.15;;
17648;SDS011;8943;51.110;-4.158;2022-07-29T16:07:50;3.92;;;1.60;;
17648;SDS011;8943;51.110;-4.158;2022-07-29T16:10:19;3.40;;;1.27;;
17648;SDS011;8943;51.110;-4.158;2022-07-29T16:12:49;2.50;;;1.30;;
17648;SDS011;8943;51.110;-4.158;2022-07-29T16:15:20;2.90;;;1.30;;
17648;SDS011;8943;51.110;-4.158;2022-07-29T16:17:51;5.65;;;1.17;;
17648;SDS011;8943;51.110;-4.158;2022-07-29T16:20:25;5.15;;;1.10;;
17648;SDS011;8943;51.110;-4.158;2022-07-29T16:22:53;2.08;;;1.15;;
17648;SDS011;8943;51.110;-4.158;2022-07-29T16:25:23;2.67;;;1.10;;
17648;SDS011;8943;51.110;-4.158;2022-07-29T16:28:12;2.13;;;1.10;;
17648;SDS011;8943;51.110;-4.158;2022-07-29T16:30:41;3.53;;;1.33;;
17648;SDS011;8943;51.110;-4.158;2022-07-29T16:33:11;3.90;;;1.30;;
17648;SDS011;8943;51.110;-4.158;2022-07-29T16:35:52;3.50;;;1.55;;
17648;SDS011;8943;51.110;-4.158;2022-07-29T16:38:26;4.13;;;1.02;;
17648;SDS011;8943;51.110;-4.158;2022-07-29T16:41:13;3.00;;;1.05;;
17648;SDS011;8943;51.110;-4.158;2022-07-29T16:43:49;3.55;;;1.35;;
17648;SDS011;8943;51.110;-4.158;2022-07-29T16:46:25;3.65;;;1.27;;
17648;SDS011;8943;51.110;-4.158;2022-07-29T16:49:01;2.45;;;0.85;;
17648;SDS011;8943;51.110;-4.158;2022-07-29T16:51:34;4.43;;;1.20;;
17648;SDS011;8943;51.110;-4.158;2022-07-29T16:54:04;4.60;;;1.00;;
17648;SDS011;8943;51.110;-4.158;2022-07-29T16:56:48;3.72;;;1.20;;
17648;SDS011;8943;51.110;-4.158;2022-07-29T16:59:32;2.03;;;1.10;;
17648;SDS011;8943;51.110;-4.158;2022-07-29T17:02:09;3.25;;;1.10;;
17648;SDS011;8943;51.110;-4.158;2022-07-29T17:04:38;4.40;;;1.30;;
17648;SDS011;8943;51.110;-4.158;2022-07-29T17:09:59;7.22;;;1.60;;